createdAt,value
2016-10-28T00:00:53.485Z,1028.64
2016-10-28T00:01:53.509Z,1028.64
2016-10-28T00:02:53.527Z,1028.61
2016-10-28T00:03:53.553Z,1028.59
2016-10-28T00:04:53.561Z,1028.54
2016-10-28T00:05:53.578Z,1028.47
2016-10-28T00:06:53.599Z,1028.52
2016-10-28T00:07:53.620Z,1028.48
2016-10-28T00:08:53.638Z,1028.52
2016-10-28T00:09:53.659Z,1028.56
2016-10-28T00:10:53.675Z,1028.56
2016-10-28T00:11:53.699Z,1028.59
2016-10-28T00:12:53.717Z,1028.6
2016-10-28T00:13:53.736Z,1028.63
2016-10-28T00:14:53.778Z,1028.67
2016-10-28T00:15:53.781Z,1028.69
2016-10-28T00:16:53.804Z,1028.72
2016-10-28T00:17:53.826Z,1028.72
2016-10-28T00:18:53.831Z,1028.78
2016-10-28T00:19:53.850Z,1028.71
2016-10-28T00:20:53.873Z,1028.72
2016-10-28T00:21:53.890Z,1028.69
2016-10-28T00:22:53.907Z,1028.68
2016-10-28T00:23:53.929Z,1028.72
2016-10-28T00:24:53.952Z,1028.75
2016-10-28T00:25:53.969Z,1028.75
2016-10-28T00:26:53.985Z,1028.65
2016-10-28T00:27:54.009Z,1028.59
2016-10-28T00:28:54.024Z,1028.48
2016-10-28T00:29:54.048Z,1028.3
2016-10-28T00:30:54.064Z,1028.16
2016-10-28T00:31:54.086Z,1028.11
2016-10-28T00:32:54.098Z,1028.08
2016-10-28T00:33:54.121Z,1028.15
2016-10-28T00:34:54.135Z,1028.18
2016-10-28T00:35:54.158Z,1028.34
2016-10-28T00:36:54.189Z,1028.44
2016-10-28T00:37:54.197Z,1028.55
2016-10-28T00:38:54.217Z,1028.58
2016-10-28T00:39:54.239Z,1028.64
2016-10-28T00:40:54.257Z,1028.61
2016-10-28T00:41:54.277Z,1028.59
2016-10-28T00:42:54.299Z,1028.59
2016-10-28T00:43:54.314Z,1028.66
2016-10-28T00:44:54.333Z,1028.62
2016-10-28T00:45:54.358Z,1028.57
2016-10-28T00:47:04.648Z,1028.62
2016-10-28T00:47:54.399Z,1028.67
2016-10-28T00:48:54.419Z,1028.68
2016-10-28T00:49:54.429Z,1028.7
2016-10-28T00:50:54.452Z,1028.66
2016-10-28T00:51:54.477Z,1028.72
2016-10-28T00:52:54.496Z,1028.7
2016-10-28T00:53:54.512Z,1028.74
2016-10-28T00:54:54.535Z,1028.75
2016-10-28T00:55:54.558Z,1028.77
2016-10-28T00:56:54.570Z,1028.77
2016-10-28T00:57:54.590Z,1028.73
2016-10-28T00:58:54.611Z,1028.74
2016-10-28T00:59:54.629Z,1028.74
2016-10-28T01:00:54.654Z,1028.7
2016-10-28T01:01:54.678Z,1028.71
2016-10-28T01:02:54.686Z,1028.68
2016-10-28T01:03:54.707Z,1028.63
2016-10-28T01:04:54.737Z,1028.62
2016-10-28T01:05:54.747Z,1028.61
2016-10-28T01:06:54.778Z,1028.62
2016-10-28T01:07:54.783Z,1028.65
2016-10-28T01:08:54.808Z,1028.7
2016-10-28T01:09:54.831Z,1028.76
2016-10-28T01:10:54.846Z,1028.84
2016-10-28T01:11:54.865Z,1028.79
2016-10-28T01:12:54.886Z,1028.72
2016-10-28T01:13:54.905Z,1028.68
2016-10-28T01:14:54.979Z,1028.63
2016-10-28T01:15:54.946Z,1028.61
2016-10-28T01:16:54.961Z,1028.58
2016-10-28T01:17:54.992Z,1028.54
2016-10-28T01:18:55.002Z,1028.58
2016-10-28T01:19:55.023Z,1028.55
2016-10-28T01:20:55.047Z,1028.53
2016-10-28T01:21:55.067Z,1028.51
2016-10-28T01:22:55.087Z,1028.44
2016-10-28T01:23:55.108Z,1028.41
2016-10-28T01:24:55.127Z,1028.33
2016-10-28T01:25:55.201Z,1028.22
2016-10-28T01:26:55.163Z,1028.2
2016-10-28T01:27:55.207Z,1028.18
2016-10-28T01:28:55.203Z,1028.11
2016-10-28T01:29:55.226Z,1028.13
2016-10-28T01:30:55.239Z,1028.17
2016-10-28T01:31:55.256Z,1028.15
2016-10-28T01:32:55.282Z,1028.1
2016-10-28T01:33:55.300Z,1028.14
2016-10-28T01:34:55.323Z,1028.14
2016-10-28T01:35:55.347Z,1028.14
2016-10-28T01:36:55.366Z,1028.11
2016-10-28T01:37:55.386Z,1028.09
2016-10-28T01:38:55.400Z,1028.12
2016-10-28T01:39:55.421Z,1027.98
2016-10-28T01:40:55.440Z,1028.02
2016-10-28T01:41:55.461Z,1028
2016-10-28T01:42:55.477Z,1027.98
2016-10-28T01:43:55.502Z,1027.97
2016-10-28T01:44:55.519Z,1027.91
2016-10-28T01:45:55.553Z,1027.9
2016-10-28T01:46:55.562Z,1027.9
2016-10-28T01:47:55.582Z,1027.84
2016-10-28T01:48:55.601Z,1027.81
2016-10-28T01:49:55.622Z,1027.77
2016-10-28T01:50:55.645Z,1027.74
2016-10-28T01:51:55.721Z,1027.73
2016-10-28T01:52:55.679Z,1027.62
2016-10-28T01:53:55.698Z,1027.61
2016-10-28T01:54:55.717Z,1027.61
2016-10-28T01:55:55.745Z,1027.61
2016-10-28T01:56:55.762Z,1027.6
2016-10-28T01:57:55.778Z,1027.55
2016-10-28T01:58:55.794Z,1027.54
2016-10-28T01:59:55.817Z,1027.51
2016-10-28T02:00:55.838Z,1027.54
2016-10-28T02:01:55.864Z,1027.5
2016-10-28T02:02:55.880Z,1027.55
2016-10-28T02:03:55.898Z,1027.53
2016-10-28T02:04:55.923Z,1027.5
2016-10-28T02:05:55.932Z,1027.52
2016-10-28T02:06:55.963Z,1027.54
2016-10-28T02:07:55.971Z,1027.61
2016-10-28T02:08:55.993Z,1027.62
2016-10-28T02:09:56.011Z,1027.56
2016-10-28T02:10:56.035Z,1027.6
2016-10-28T02:11:56.053Z,1027.61
2016-10-28T02:12:56.074Z,1027.68
2016-10-28T02:13:56.091Z,1027.74
2016-10-28T02:14:56.116Z,1027.78
2016-10-28T02:15:56.133Z,1027.82
2016-10-28T02:16:56.157Z,1027.8
2016-10-28T02:17:56.168Z,1027.83
2016-10-28T02:18:56.197Z,1027.77
2016-10-28T02:19:56.214Z,1027.73
2016-10-28T02:20:56.233Z,1027.7
2016-10-28T02:21:56.254Z,1027.66
2016-10-28T02:22:56.267Z,1027.62
2016-10-28T02:23:56.298Z,1027.6
2016-10-28T02:24:56.317Z,1027.52
2016-10-28T02:25:56.334Z,1027.44
2016-10-28T02:26:56.345Z,1027.43
2016-10-28T02:27:56.372Z,1027.44
2016-10-28T02:28:56.385Z,1027.47
2016-10-28T02:29:56.407Z,1027.49
2016-10-28T02:30:56.432Z,1027.51
2016-10-28T02:31:56.453Z,1027.54
2016-10-28T02:32:56.466Z,1027.62
2016-10-28T02:33:56.487Z,1027.59
2016-10-28T02:34:56.506Z,1027.6
2016-10-28T02:35:56.527Z,1027.62
2016-10-28T02:36:56.545Z,1027.63
2016-10-28T02:37:56.564Z,1027.61
2016-10-28T02:38:56.587Z,1027.65
2016-10-28T02:39:56.610Z,1027.61
2016-10-28T02:40:56.641Z,1027.61
2016-10-28T02:41:56.650Z,1027.69
2016-10-28T02:42:56.668Z,1027.7
2016-10-28T02:43:56.690Z,1027.77
2016-10-28T02:44:56.708Z,1027.76
2016-10-28T02:45:56.727Z,1027.76
2016-10-28T02:46:56.745Z,1027.83
2016-10-28T02:47:56.768Z,1027.87
2016-10-28T02:48:56.789Z,1027.81
2016-10-28T02:49:56.809Z,1027.78
2016-10-28T02:50:56.825Z,1027.8
2016-10-28T02:51:56.848Z,1027.83
2016-10-28T02:52:56.863Z,1027.85
2016-10-28T02:53:56.885Z,1027.93
2016-10-28T02:54:56.902Z,1027.89
2016-10-28T02:55:56.920Z,1027.91
2016-10-28T02:56:56.940Z,1027.75
2016-10-28T02:57:56.968Z,1027.82
2016-10-28T02:58:56.988Z,1027.87
2016-10-28T02:59:57.001Z,1027.82
2016-10-28T03:00:57.021Z,1027.72
2016-10-28T03:01:57.055Z,1027.66
2016-10-28T03:02:57.067Z,1027.56
2016-10-28T03:03:57.092Z,1027.6
2016-10-28T03:04:57.104Z,1027.5
2016-10-28T03:05:57.135Z,1027.47
2016-10-28T03:06:57.143Z,1027.35
2016-10-28T03:07:57.173Z,1027.4
2016-10-28T03:08:57.182Z,1027.35
2016-10-28T03:09:57.201Z,1027.36
2016-10-28T03:10:57.222Z,1027.32
2016-10-28T03:11:57.254Z,1027.3
2016-10-28T03:12:57.258Z,1027.29
2016-10-28T03:13:57.285Z,1027.36
2016-10-28T03:14:57.304Z,1027.36
2016-10-28T03:15:57.320Z,1027.28
2016-10-28T03:16:57.355Z,1027.25
2016-10-28T03:17:57.363Z,1027.16
2016-10-28T03:18:57.487Z,1027.2
2016-10-28T03:19:57.404Z,1027.2
2016-10-28T03:20:57.525Z,1027.23
2016-10-28T03:21:57.444Z,1027.26
2016-10-28T03:22:57.467Z,1027.25
2016-10-28T03:23:57.486Z,1027.26
2016-10-28T03:24:57.502Z,1027.24
2016-10-28T03:25:57.523Z,1027.23
2016-10-28T03:26:57.542Z,1027.21
2016-10-28T03:27:57.566Z,1027.23
2016-10-28T03:28:57.578Z,1027.21
2016-10-28T03:29:57.605Z,1027.35
2016-10-28T03:30:57.628Z,1027.36
2016-10-28T03:31:57.740Z,1027.39
2016-10-28T03:32:57.658Z,1027.49
2016-10-28T03:33:57.685Z,1027.47
2016-10-28T03:34:57.708Z,1027.53
2016-10-28T03:35:57.726Z,1027.55
2016-10-28T03:36:57.735Z,1027.6
2016-10-28T03:37:57.758Z,1027.57
2016-10-28T03:38:57.782Z,1027.59
2016-10-28T03:39:57.796Z,1027.6
2016-10-28T03:40:57.816Z,1027.58
2016-10-28T03:41:57.837Z,1027.53
2016-10-28T03:42:57.858Z,1027.49
2016-10-28T03:43:57.886Z,1027.5
2016-10-28T03:44:57.909Z,1027.59
2016-10-28T03:45:57.929Z,1027.57
2016-10-28T03:46:57.935Z,1027.55
2016-10-28T03:47:57.958Z,1027.53
2016-10-28T03:48:57.979Z,1027.59
2016-10-28T03:49:57.998Z,1027.55
2016-10-28T03:50:58.017Z,1027.58
2016-10-28T03:51:58.036Z,1027.56
2016-10-28T03:52:58.057Z,1027.56
2016-10-28T03:53:58.078Z,1027.56
2016-10-28T03:54:58.099Z,1027.53
2016-10-28T03:55:58.120Z,1027.54
2016-10-28T03:56:58.138Z,1027.56
2016-10-28T03:57:58.159Z,1027.57
2016-10-28T03:58:58.180Z,1027.61
2016-10-28T03:59:58.201Z,1027.59
2016-10-28T04:00:58.222Z,1027.59
2016-10-28T04:01:58.234Z,1027.58
2016-10-28T04:02:58.259Z,1027.57
2016-10-28T04:03:58.276Z,1027.63
2016-10-28T04:04:58.302Z,1027.59
2016-10-28T04:05:58.321Z,1027.61
2016-10-28T04:06:58.333Z,1027.66
2016-10-28T04:07:58.359Z,1027.61
2016-10-28T04:08:58.377Z,1027.63
2016-10-28T04:09:58.396Z,1027.59
2016-10-28T04:10:58.416Z,1027.55
2016-10-28T04:11:58.443Z,1027.51
2016-10-28T04:12:58.458Z,1027.46
2016-10-28T04:13:58.472Z,1027.43
2016-10-28T04:14:58.501Z,1027.42
2016-10-28T04:15:58.513Z,1027.42
2016-10-28T04:16:58.533Z,1027.39
2016-10-28T04:17:58.563Z,1027.39
2016-10-28T04:18:58.573Z,1027.34
2016-10-28T04:19:58.594Z,1027.33
2016-10-28T04:20:58.618Z,1027.4
2016-10-28T04:21:58.636Z,1027.38
2016-10-28T04:22:58.660Z,1027.38
2016-10-28T04:23:58.675Z,1027.4
2016-10-28T04:24:58.695Z,1027.39
2016-10-28T04:25:58.712Z,1027.4
2016-10-28T04:26:58.735Z,1027.42
2016-10-28T04:27:58.753Z,1027.42
2016-10-28T04:28:58.772Z,1027.39
2016-10-28T04:29:58.793Z,1027.37
2016-10-28T04:30:58.817Z,1027.33
2016-10-28T04:31:58.839Z,1027.33
2016-10-28T04:32:58.860Z,1027.32
2016-10-28T04:33:58.879Z,1027.35
2016-10-28T04:34:58.895Z,1027.31
2016-10-28T04:35:58.913Z,1027.32
2016-10-28T04:36:58.937Z,1027.29
2016-10-28T04:37:58.949Z,1027.3
2016-10-28T04:38:58.977Z,1027.24
2016-10-28T04:39:58.994Z,1027.24
2016-10-28T04:40:59.017Z,1027.18
2016-10-28T04:41:59.030Z,1027.15
2016-10-28T04:42:59.052Z,1027.11
2016-10-28T04:43:59.077Z,1027.07
2016-10-28T04:44:59.098Z,1027.08
2016-10-28T04:45:59.132Z,1027.02
2016-10-28T04:46:59.136Z,1027.05
2016-10-28T04:47:59.209Z,1026.97
2016-10-28T04:48:59.171Z,1026.97
2016-10-28T04:49:59.196Z,1027.04
2016-10-28T04:50:59.228Z,1027.12
2016-10-28T04:51:59.237Z,1027.14
2016-10-28T04:52:59.253Z,1027.17
2016-10-28T04:53:59.276Z,1027.21
2016-10-28T04:54:59.299Z,1027.29
2016-10-28T04:55:59.320Z,1027.29
2016-10-28T04:56:59.339Z,1027.28
2016-10-28T04:57:59.361Z,1027.37
2016-10-28T04:58:59.377Z,1027.37
2016-10-28T04:59:59.405Z,1027.38
2016-10-28T05:00:59.473Z,1027.33
2016-10-28T05:01:59.438Z,1027.34
2016-10-28T05:02:59.456Z,1027.29
2016-10-28T05:03:59.472Z,1027.26
2016-10-28T05:04:59.495Z,1027.28
2016-10-28T05:05:59.517Z,1027.27
2016-10-28T05:06:59.538Z,1027.25
2016-10-28T05:07:59.557Z,1027.3
2016-10-28T05:08:59.580Z,1027.33
2016-10-28T05:09:59.713Z,1027.32
2016-10-28T05:10:59.621Z,1027.26
2016-10-28T05:11:59.635Z,1027.26
2016-10-28T05:12:59.656Z,1027.21
2016-10-28T05:13:59.686Z,1027.14
2016-10-28T05:14:59.706Z,1027.15
2016-10-28T05:15:59.823Z,1027.19
2016-10-28T05:16:59.741Z,1027.17
2016-10-28T05:17:59.762Z,1027.14
2016-10-28T05:18:59.779Z,1027.09
2016-10-28T05:19:59.804Z,1027.1
2016-10-28T05:20:59.820Z,1027.08
2016-10-28T05:21:59.841Z,1027.02
2016-10-28T05:22:59.861Z,1027.06
2016-10-28T05:23:59.883Z,1027.06
2016-10-28T05:24:59.901Z,1027.12
2016-10-28T05:25:59.920Z,1027.15
2016-10-28T05:26:59.941Z,1027.18
2016-10-28T05:27:59.959Z,1027.16
2016-10-28T05:28:59.981Z,1027.18
2016-10-28T05:29:59.997Z,1027.21
2016-10-28T05:31:00.022Z,1027.17
2016-10-28T05:32:00.042Z,1027.12
2016-10-28T05:33:00.062Z,1027.1
2016-10-28T05:34:00.077Z,1027.1
2016-10-28T05:35:00.101Z,1027.05
2016-10-28T05:36:00.120Z,1026.99
2016-10-28T05:37:00.142Z,1026.97
2016-10-28T05:38:00.161Z,1026.84
2016-10-28T05:39:00.183Z,1026.83
2016-10-28T05:40:00.198Z,1026.84
2016-10-28T05:41:00.220Z,1026.85
2016-10-28T05:42:00.241Z,1026.85
2016-10-28T05:43:00.261Z,1026.85
2016-10-28T05:44:00.279Z,1026.84
2016-10-28T05:45:00.300Z,1026.77
2016-10-28T05:46:00.320Z,1026.71
2016-10-28T05:47:00.359Z,1026.74
2016-10-28T05:48:00.361Z,1026.75
2016-10-28T05:49:00.380Z,1026.82
2016-10-28T05:50:00.401Z,1026.9
2016-10-28T05:51:00.419Z,1026.91
2016-10-28T05:52:00.441Z,1026.85
2016-10-28T05:53:00.461Z,1026.8
2016-10-28T05:54:00.484Z,1026.74
2016-10-28T05:55:00.509Z,1026.7
2016-10-28T05:56:00.520Z,1026.73
2016-10-28T05:57:00.539Z,1026.8
2016-10-28T05:58:00.561Z,1026.87
2016-10-28T05:59:00.579Z,1026.84
2016-10-28T06:00:00.608Z,1026.85
2016-10-28T06:01:00.636Z,1026.86
2016-10-28T06:02:00.641Z,1026.88
2016-10-28T06:03:00.669Z,1026.81
2016-10-28T06:04:00.692Z,1026.91
2016-10-28T06:05:00.705Z,1026.93
2016-10-28T06:06:00.724Z,1026.98
2016-10-28T06:07:00.748Z,1027.05
2016-10-28T06:08:00.779Z,1027.08
2016-10-28T06:09:00.785Z,1027.06
2016-10-28T06:10:00.803Z,1027.1
2016-10-28T06:11:00.823Z,1027.05
2016-10-28T06:12:00.850Z,1027.02
2016-10-28T06:13:00.870Z,1026.92
2016-10-28T06:14:00.886Z,1026.92
2016-10-28T06:15:00.911Z,1026.98
2016-10-28T06:16:00.931Z,1027.06
2016-10-28T06:17:00.943Z,1027.14
2016-10-28T06:18:00.965Z,1027.29
2016-10-28T06:19:00.989Z,1027.35
2016-10-28T06:20:01.008Z,1027.32
2016-10-28T06:21:01.030Z,1027.33
2016-10-28T06:22:01.054Z,1027.29
2016-10-28T06:23:01.077Z,1027.21
2016-10-28T06:24:01.085Z,1027.17
2016-10-28T06:25:01.107Z,1027.19
2016-10-28T06:26:01.128Z,1027.24
2016-10-28T06:27:01.148Z,1027.3
2016-10-28T06:28:01.217Z,1027.38
2016-10-28T06:29:01.187Z,1027.43
2016-10-28T06:30:01.210Z,1027.41
2016-10-28T06:31:01.225Z,1027.41
2016-10-28T06:32:01.247Z,1027.38
2016-10-28T06:33:01.266Z,1027.37
2016-10-28T06:34:01.288Z,1027.4
2016-10-28T06:35:01.307Z,1027.41
2016-10-28T06:36:01.331Z,1027.36
2016-10-28T06:37:01.355Z,1027.35
2016-10-28T06:38:01.379Z,1027.29
2016-10-28T06:39:01.399Z,1027.25
2016-10-28T06:40:01.408Z,1027.25
2016-10-28T06:41:01.477Z,1027.28
2016-10-28T06:42:01.449Z,1027.21
2016-10-28T06:43:01.470Z,1027.15
2016-10-28T06:44:01.497Z,1027.05
2016-10-28T06:45:01.523Z,1027.03
2016-10-28T06:46:01.532Z,1026.95
2016-10-28T06:47:01.553Z,1026.89
2016-10-28T06:48:01.576Z,1026.87
2016-10-28T06:49:01.594Z,1026.95
2016-10-28T06:50:01.611Z,1027.01
2016-10-28T06:51:01.630Z,1027.04
2016-10-28T06:52:01.656Z,1027.09
2016-10-28T06:53:01.675Z,1027.19
2016-10-28T06:54:01.693Z,1027.2
2016-10-28T06:55:01.719Z,1027.19
2016-10-28T06:56:01.737Z,1027.18
2016-10-28T06:57:01.751Z,1027.28
2016-10-28T06:58:01.774Z,1027.25
2016-10-28T06:59:01.796Z,1027.36
2016-10-28T07:00:01.814Z,1027.3
2016-10-28T07:01:01.835Z,1027.28
2016-10-28T07:02:01.857Z,1027.36
2016-10-28T07:03:01.879Z,1027.39
2016-10-28T07:04:01.905Z,1027.42
2016-10-28T07:05:01.916Z,1027.39
2016-10-28T07:06:02.198Z,1027.39
2016-10-28T07:07:02.257Z,1027.41
2016-10-28T07:08:02.288Z,1027.44
2016-10-28T07:09:02.217Z,1027.5
2016-10-28T07:10:02.219Z,1027.55
2016-10-28T07:11:02.208Z,1027.62
2016-10-28T07:12:02.209Z,1027.63
2016-10-28T07:13:02.281Z,1027.61
2016-10-28T07:14:02.252Z,1027.6
2016-10-28T07:15:02.274Z,1027.58
2016-10-28T07:16:02.291Z,1027.56
2016-10-28T07:17:02.261Z,1027.52
2016-10-28T07:18:02.286Z,1027.49
2016-10-28T07:19:02.310Z,1027.52
2016-10-28T07:20:02.382Z,1027.52
2016-10-28T07:21:02.256Z,1027.53
2016-10-28T07:22:02.316Z,1027.53
2016-10-28T07:23:02.948Z,1027.54
2016-10-28T07:24:02.358Z,1027.6
2016-10-28T07:25:02.327Z,1027.6
2016-10-28T07:26:02.352Z,1027.58
2016-10-28T07:27:02.364Z,1027.6
2016-10-28T07:28:02.391Z,1027.54
2016-10-28T07:29:02.405Z,1027.56
2016-10-28T07:30:02.429Z,1027.53
2016-10-28T07:31:02.946Z,1027.55
2016-10-28T07:32:02.466Z,1027.41
2016-10-28T07:33:02.487Z,1027.48
2016-10-28T07:34:02.510Z,1027.55
2016-10-28T07:35:02.531Z,1027.55
2016-10-28T07:36:02.555Z,1027.57
2016-10-28T07:37:02.579Z,1027.54
2016-10-28T07:38:02.593Z,1027.49
2016-10-28T07:39:02.616Z,1027.54
2016-10-28T07:40:02.647Z,1027.55
2016-10-28T07:41:02.665Z,1027.62
2016-10-28T07:42:02.682Z,1027.66
2016-10-28T07:43:02.697Z,1027.7
2016-10-28T07:44:02.714Z,1027.67
2016-10-28T07:45:02.735Z,1027.7
2016-10-28T07:46:02.755Z,1027.67
2016-10-28T07:47:02.783Z,1027.63
2016-10-28T07:48:02.794Z,1027.64
2016-10-28T07:49:02.815Z,1027.67
2016-10-28T07:50:02.842Z,1027.68
2016-10-28T07:51:02.869Z,1027.7
2016-10-28T07:52:02.884Z,1027.71
2016-10-28T07:53:02.920Z,1027.72
2016-10-28T07:54:02.920Z,1027.76
2016-10-28T07:55:02.947Z,1027.78
2016-10-28T07:56:02.967Z,1027.81
2016-10-28T07:57:02.984Z,1027.75
2016-10-28T07:58:03.007Z,1027.81
2016-10-28T07:59:03.026Z,1027.81
2016-10-28T08:00:03.051Z,1027.82
2016-10-28T08:01:03.072Z,1027.85
2016-10-28T08:02:03.093Z,1027.81
2016-10-28T08:03:03.108Z,1027.83
2016-10-28T08:04:03.132Z,1027.81
2016-10-28T08:05:03.156Z,1027.8
2016-10-28T08:06:03.266Z,1027.81
2016-10-28T08:07:03.195Z,1027.79
2016-10-28T08:08:03.212Z,1027.83
2016-10-28T08:09:03.236Z,1027.82
2016-10-28T08:10:03.508Z,1027.82
2016-10-28T08:11:03.269Z,1027.74
2016-10-28T08:12:03.293Z,1027.75
2016-10-28T08:13:03.315Z,1027.71
2016-10-28T08:14:03.332Z,1027.76
2016-10-28T08:15:03.365Z,1027.79
2016-10-28T08:16:03.373Z,1027.85
2016-10-28T08:17:03.492Z,1027.86
2016-10-28T08:18:03.420Z,1027.84
2016-10-28T08:19:03.440Z,1027.9
2016-10-28T08:20:03.461Z,1027.93
2016-10-28T08:21:03.477Z,1027.91
2016-10-28T08:22:03.503Z,1027.9
2016-10-28T08:23:03.522Z,1027.89
2016-10-28T08:24:03.538Z,1027.89
2016-10-28T08:25:03.565Z,1027.86
2016-10-28T08:26:03.587Z,1028
2016-10-28T08:27:03.607Z,1027.95
2016-10-28T08:28:03.726Z,1027.98
2016-10-28T08:29:03.647Z,1027.97
2016-10-28T08:30:03.676Z,1027.97
2016-10-28T08:31:03.692Z,1027.91
2016-10-28T08:32:03.708Z,1027.96
2016-10-28T08:33:03.723Z,1027.94
2016-10-28T08:34:03.755Z,1027.93
2016-10-28T08:35:03.767Z,1027.96
2016-10-28T08:36:03.804Z,1027.97
2016-10-28T08:37:03.812Z,1027.93
2016-10-28T08:38:03.834Z,1027.94
2016-10-28T08:39:03.855Z,1027.92
2016-10-28T08:40:03.875Z,1027.93
2016-10-28T08:41:03.893Z,1027.88
2016-10-28T08:42:03.916Z,1027.91
2016-10-28T08:43:03.932Z,1027.99
2016-10-28T08:44:03.956Z,1027.92
2016-10-28T08:45:03.977Z,1027.93
2016-10-28T08:46:04.004Z,1027.96
2016-10-28T08:47:04.018Z,1027.98
2016-10-28T08:48:04.037Z,1028.03
2016-10-28T08:49:04.061Z,1027.97
2016-10-28T08:50:04.084Z,1027.94
2016-10-28T08:51:04.106Z,1027.97
2016-10-28T08:52:04.129Z,1028.01
2016-10-28T08:53:04.143Z,1028.02
2016-10-28T08:54:04.168Z,1027.98
2016-10-28T08:55:04.185Z,1028.02
2016-10-28T08:56:04.212Z,1027.98
2016-10-28T08:57:04.223Z,1028.04
2016-10-28T08:58:04.247Z,1028.01
2016-10-28T08:59:04.272Z,1028.01
2016-10-28T09:00:04.291Z,1027.94
2016-10-28T09:01:04.305Z,1028.01
2016-10-28T09:02:04.333Z,1028
2016-10-28T09:03:04.348Z,1028.02
2016-10-28T09:04:04.375Z,1028.03
2016-10-28T09:05:04.388Z,1028.07
2016-10-28T09:06:04.410Z,1028.09
2016-10-28T09:07:04.434Z,1028.06
2016-10-28T09:08:04.455Z,1028.1
2016-10-28T09:09:04.471Z,1028.09
2016-10-28T09:10:04.493Z,1028.09
2016-10-28T09:11:04.515Z,1028.11
2016-10-28T09:12:04.535Z,1028.11
2016-10-28T09:13:04.554Z,1028.1
2016-10-28T09:14:04.578Z,1028.17
2016-10-28T09:15:04.606Z,1028.15
2016-10-28T09:16:04.621Z,1028.17
2016-10-28T09:17:04.637Z,1028.16
2016-10-28T09:18:04.660Z,1028.16
2016-10-28T09:19:04.684Z,1028.22
2016-10-28T09:20:04.706Z,1028.28
2016-10-28T09:21:04.723Z,1028.27
2016-10-28T09:22:04.745Z,1028.25
2016-10-28T09:23:04.765Z,1028.25
2016-10-28T09:24:04.785Z,1028.23
2016-10-28T09:25:04.815Z,1028.18
2016-10-28T09:26:04.826Z,1028.14
2016-10-28T09:27:04.853Z,1028.2
2016-10-28T09:28:04.879Z,1028.19
2016-10-28T09:29:04.894Z,1028.18
2016-10-28T09:30:04.915Z,1028.18
2016-10-28T09:31:04.936Z,1028.25
2016-10-28T09:32:04.956Z,1028.25
2016-10-28T09:33:04.974Z,1028.23
2016-10-28T09:34:04.996Z,1028.24
2016-10-28T09:35:05.013Z,1028.26
2016-10-28T09:36:05.049Z,1028.26
2016-10-28T09:37:05.062Z,1028.29
2016-10-28T09:38:05.084Z,1028.3
2016-10-28T09:39:05.098Z,1028.34
2016-10-28T09:40:05.121Z,1028.33
2016-10-28T09:41:05.146Z,1028.3
2016-10-28T09:42:05.165Z,1028.24
2016-10-28T09:43:05.183Z,1028.29
2016-10-28T09:44:05.215Z,1028.26
2016-10-28T09:45:05.230Z,1028.29
2016-10-28T09:46:05.246Z,1028.29
2016-10-28T09:47:05.268Z,1028.31
2016-10-28T09:48:05.293Z,1028.33
2016-10-28T09:49:05.322Z,1028.37
2016-10-28T09:50:05.331Z,1028.33
2016-10-28T09:51:05.352Z,1028.4
2016-10-28T09:52:05.376Z,1028.35
2016-10-28T09:53:05.398Z,1028.39
2016-10-28T09:54:05.415Z,1028.45
2016-10-28T09:55:05.443Z,1028.45
2016-10-28T09:56:05.454Z,1028.4
2016-10-28T09:57:05.506Z,1028.45
2016-10-28T09:58:05.508Z,1028.43
2016-10-28T09:59:05.527Z,1028.48
2016-10-28T10:00:05.545Z,1028.54
2016-10-28T10:01:05.561Z,1028.58
2016-10-28T10:02:05.593Z,1028.57
2016-10-28T10:03:05.605Z,1028.62
2016-10-28T10:04:05.633Z,1028.59
2016-10-28T10:05:05.654Z,1028.58
2016-10-28T10:06:05.682Z,1028.58
2016-10-28T10:07:05.687Z,1028.62
2016-10-28T10:08:05.712Z,1028.58
2016-10-28T10:09:05.736Z,1028.53
2016-10-28T10:10:05.754Z,1028.48
2016-10-28T10:11:05.782Z,1028.46
2016-10-28T10:12:05.795Z,1028.49
2016-10-28T10:13:05.814Z,1028.52
2016-10-28T10:14:05.835Z,1028.61
2016-10-28T10:15:05.859Z,1028.63
2016-10-28T10:16:05.886Z,1028.68
2016-10-28T10:17:05.904Z,1028.72
2016-10-28T10:18:05.921Z,1028.72
2016-10-28T10:19:05.945Z,1028.75
2016-10-28T10:20:05.960Z,1028.77
2016-10-28T10:21:05.983Z,1028.79
2016-10-28T10:22:06.013Z,1028.77
2016-10-28T10:23:06.323Z,1028.72
2016-10-28T10:24:06.043Z,1028.69
2016-10-28T10:25:06.064Z,1028.67
2016-10-28T10:26:06.092Z,1028.7
2016-10-28T10:27:06.130Z,1028.68
2016-10-28T10:28:06.132Z,1028.71
2016-10-28T10:29:06.150Z,1028.82
2016-10-28T10:30:06.171Z,1028.79
2016-10-28T10:31:06.190Z,1028.81
2016-10-28T10:32:06.225Z,1028.78
2016-10-28T10:33:06.238Z,1028.86
2016-10-28T10:34:06.255Z,1028.92
2016-10-28T10:35:06.272Z,1028.94
2016-10-28T10:36:06.293Z,1028.92
2016-10-28T10:37:06.320Z,1028.88
2016-10-28T10:38:06.334Z,1028.9
2016-10-28T10:39:06.360Z,1028.93
2016-10-28T10:40:06.379Z,1028.99
2016-10-28T10:41:06.413Z,1029.03
2016-10-28T10:42:06.427Z,1029
2016-10-28T10:43:06.451Z,1028.97
2016-10-28T10:44:06.520Z,1028.93
2016-10-28T10:45:06.489Z,1028.93
2016-10-28T10:46:06.512Z,1028.94
2016-10-28T10:47:06.521Z,1028.88
2016-10-28T10:48:06.542Z,1028.8
2016-10-28T10:49:06.576Z,1028.71
2016-10-28T10:50:06.613Z,1028.71
2016-10-28T10:51:06.613Z,1028.73
2016-10-28T10:52:06.636Z,1028.81
2016-10-28T10:53:06.653Z,1028.79
2016-10-28T10:54:06.675Z,1028.79
2016-10-28T10:55:06.692Z,1028.78
2016-10-28T10:56:06.712Z,1028.75
2016-10-28T10:57:06.728Z,1028.78
2016-10-28T10:58:06.747Z,1028.7
2016-10-28T10:59:06.771Z,1028.74
2016-10-28T11:00:06.794Z,1028.71
2016-10-28T11:01:06.814Z,1028.69
2016-10-28T11:02:06.835Z,1028.87
2016-10-28T11:03:06.864Z,1028.83
2016-10-28T11:04:06.878Z,1028.89
2016-10-28T11:05:06.907Z,1028.88
2016-10-28T11:06:06.923Z,1028.88
2016-10-28T11:07:07.017Z,1028.88
2016-10-28T11:08:06.963Z,1028.85
2016-10-28T11:09:06.981Z,1028.85
2016-10-28T11:10:07.003Z,1028.82
2016-10-28T11:11:07.025Z,1028.81
2016-10-28T11:12:07.047Z,1028.84
2016-10-28T11:13:07.065Z,1028.83
2016-10-28T11:14:07.094Z,1028.86
2016-10-28T11:15:07.107Z,1028.89
2016-10-28T11:16:07.131Z,1028.97
2016-10-28T11:17:07.153Z,1029.01
2016-10-28T11:18:07.169Z,1028.99
2016-10-28T11:19:07.192Z,1029
2016-10-28T11:20:07.217Z,1028.98
2016-10-28T11:21:07.233Z,1028.97
2016-10-28T11:22:07.255Z,1028.95
2016-10-28T11:23:07.278Z,1028.83
2016-10-28T11:24:07.302Z,1028.77
2016-10-28T11:25:07.321Z,1028.8
2016-10-28T11:26:07.345Z,1028.88
2016-10-28T11:27:07.363Z,1028.87
2016-10-28T11:28:07.379Z,1028.92
2016-10-28T11:29:07.415Z,1028.96
2016-10-28T11:30:07.425Z,1028.99
2016-10-28T11:31:07.443Z,1028.91
2016-10-28T11:32:07.461Z,1028.96
2016-10-28T11:33:07.486Z,1028.99
2016-10-28T11:34:07.516Z,1028.91
2016-10-28T11:35:07.528Z,1028.96
2016-10-28T11:36:07.553Z,1028.98
2016-10-28T11:37:07.574Z,1028.96
2016-10-28T11:38:07.593Z,1028.98
2016-10-28T11:39:07.611Z,1029.03
2016-10-28T11:40:07.633Z,1029
2016-10-28T11:41:07.654Z,1029.02
2016-10-28T11:42:07.680Z,1028.97
2016-10-28T11:43:07.692Z,1029.03
2016-10-28T11:44:07.719Z,1029.01
2016-10-28T11:45:07.736Z,1029.02
2016-10-28T11:46:07.757Z,1028.98
2016-10-28T11:47:07.785Z,1028.97
2016-10-28T11:48:07.796Z,1028.9
2016-10-28T11:49:07.814Z,1028.9
2016-10-28T11:50:07.847Z,1028.88
2016-10-28T11:51:07.862Z,1028.93
2016-10-28T11:52:07.886Z,1028.87
2016-10-28T11:53:07.907Z,1028.87
2016-10-28T11:54:07.927Z,1028.9
2016-10-28T11:55:07.951Z,1028.92
2016-10-28T11:56:07.974Z,1028.92
2016-10-28T11:57:08.021Z,1028.84
2016-10-28T11:58:08.015Z,1028.85
2016-10-28T11:59:08.035Z,1028.85
2016-10-28T12:00:08.056Z,1028.84
2016-10-28T12:01:08.082Z,1028.86
2016-10-28T12:02:08.091Z,1028.88
2016-10-28T12:03:08.110Z,1028.91
2016-10-28T12:04:08.137Z,1028.89
2016-10-28T12:05:08.153Z,1028.98
2016-10-28T12:06:08.176Z,1029
2016-10-28T12:07:08.197Z,1029.03
2016-10-28T12:08:08.216Z,1029.02
2016-10-28T12:09:08.255Z,1029.06